Standale, Michigan
Current Conditions -  °F | °C
As of 9:53 PM on Saturday 24 Jan 2015 (Local Time) from KGRR Reporting Station
Light Snow Light Snow  
Wind Chill: 35°   Ceiling: 1200
Heat Index: 35°   Visibility: 7mi
Dew Point: 33°   Wind: 3mph
Humidity: 92%   Direction: 270°W
Pressure: 29.66"   Gusts: NA
Location:  42.9769°N, 85.7689°W
Report Text: KGRR 250253Z 27003KT 7SM -SN BKN012 OVC022 02/01 A2966 RMK AO2 SNB48 SLP053 P0000 60000 T00170006 51010
Loading
Personal Weather Stations






























Interactive Weather Map New forecast layout! Learn more

10-Day Weather Forecast

Advertisements
Track Severe Weather on mobile